Latest Weather Observations for Lismore Airport

IDN60801

Issued at 11:05 am EDT Sunday 26 October 2014 (issued every 30 minutes, with the page automatically refreshed every 10 minutes)

About weather observations | Map of weather stations | Latest weather observations for NSW | Other Formats
Station Details ID: 058214 Name: LISMORE AIRPORT AWS Lat: -28.83 Lon: 153.26 Height: 9.21 m
Data from the previous 72 hours. | See also: Recent months for locations in New South Wales
Date/Time
EDT
Temp
°C
App
Temp
°C
Dew
Point
Rel
Hum
%
Delta-T
°C
Wind Press
QNH
hPa
Press
MSL
hPa
Rain
since 9 am
mm
Dir
 
Spd
km/h
Gust
km/h
Spd
kts
Gust
kts
26/11:00am 29.8 30.2 16.2 43 8.5 NE 9 13 5 7 1014.1 1014.1 0.0
26/10:30am 28.1 28.3 15.7 46 7.6 NE 9 15 5 8 1014.4 1014.4 0.0
26/10:00am 25.6 27.0 16.4 56 5.7 NE 4 11 2 6 1014.9 1014.9 0.0
26/09:30am 24.2 25.3 17.2 65 4.3 NNE 7 11 4 6 1015.2 1015.2 0.0
26/09:00am 22.4 22.7 16.9 71 3.4 N 11 15 6 8 1015.3 1015.3 0.0
26/08:30am 21.1 21.6 17.5 80 2.2 N 11 17 6 9 1015.3 1015.3 0.0
26/08:00am 19.0 20.0 17.8 93 0.7 N 9 13 5 7 1015.1 1015.1 0.0
26/07:30am 16.7 17.2 16.5 99 0.1 N 9 13 5 7 1015.0 1015.0 0.0
26/07:00am 15.5 15.5 15.3 99 0.1 N 9 13 5 7 1014.8 1014.8 0.0
26/06:38am 14.9 14.4 14.9 100 0.0 N 11 13 6 7 1014.6 1014.6 0.0
26/06:30am 14.6 13.5 14.4 99 0.1 N 13 15 7 8 1014.5 1014.5 0.0
26/06:08am 13.4 12.3 13.2 99 0.1 N 11 13 6 7 1014.5 1014.5 0.0
26/06:00am 13.6 12.6 13.4 99 0.1 N 11 13 6 7 1014.4 1014.4 0.0
26/05:32am 14.9 13.9 14.7 99 0.1 N 13 17 7 9 1014.2 1014.2 0.0
26/05:30am 14.9 13.9 14.7 99 0.1 N 13 17 7 9 1014.3 1014.3 0.0
26/05:15am 14.6 13.9 14.4 99 0.1 N 11 13 6 7 1014.3 1014.3 0.0
26/05:02am 14.7 13.7 14.5 99 0.1 N 13 15 7 8 1014.2 1014.2 0.0
26/05:00am 14.7 13.7 14.5 99 0.1 N 13 15 7 8 1014.3 1014.3 0.0
26/04:41am 15.0 14.1 14.8 99 0.1 N 13 13 7 7 1014.3 1014.3 0.0
26/04:30am 14.9 14.3 14.7 99 0.1 N 11 13 6 7 1014.3 1014.3 0.0
26/04:12am 15.1 14.2 14.9 99 0.1 NNW 13 15 7 8 1014.4 1014.4 0.0
26/04:00am 15.3 14.5 15.1 99 0.1 NNW 13 15 7 8 1014.4 1014.4 0.0
26/03:49am 15.3 14.5 15.1 99 0.1 N 13 15 7 8 1014.4 1014.4 0.0
26/03:30am 15.4 15.0 15.2 99 0.1 N 11 13 6 7 1014.2 1014.2 0.0
26/03:00am 15.5 15.1 15.3 99 0.1 N 11 22 6 12 1014.5 1014.5 0.0
26/02:30am 15.3 15.2 15.0 98 0.2 N 9 11 5 6 1014.8 1014.8 0.0
26/02:00am 15.9 15.7 15.6 98 0.2 N 11 15 6 8 1015.0 1015.0 0.0
26/01:30am 16.0 15.5 15.8 99 0.1 N 13 15 7 8 1015.5 1015.5 0.0
26/01:00am 15.7 15.0 15.4 98 0.2 N 13 15 7 8 1015.6 1015.6 0.0
26/12:30am 15.8 17.4 14.8 94 0.6 CALM 0 0 0 0 1016.0 1016.0 0.0
26/12:00am 15.8 17.1 14.2 90 0.9 NNW 0 0 0 0 1016.1 1016.1 0.0
 
Date/Time
EDT
Temp
°C
App
Temp
°C
Dew
Point
Rel
Hum
%
Delta-T
°C
Wind Press
QNH
hPa
Press
MSL
hPa
Rain
since 9 am
mm
Dir
 
Spd
km/h
Gust
km/h
Spd
kts
Gust
kts
25/11:30pm 17.0 18.6 15.0 88 1.2 CALM 0 0 0 0 1015.8 1015.8 0.0
25/11:00pm 18.3 19.4 16.5 89 1.1 N 6 7 3 4 1015.8 1015.8 0.0
25/10:30pm 18.1 18.4 16.1 88 1.2 N 9 11 5 6 1015.8 1015.8 0.0
25/10:00pm 18.3 17.5 16.1 87 1.3 N 15 19 8 10 1015.6 1015.6 0.0
25/09:30pm 19.6 19.1 17.0 85 1.6 N 15 17 8 9 1015.4 1015.4 0.0
25/09:00pm 21.2 21.3 17.4 79 2.3 N 13 17 7 9 1015.3 1015.3 0.0
25/08:30pm 22.0 21.8 17.6 76 2.7 N 15 19 8 10 1015.0 1015.0 0.0
25/08:00pm 22.7 22.5 17.6 73 3.2 NNE 15 19 8 10 1015.0 1015.0 0.0
25/07:30pm 23.5 22.9 17.5 69 3.7 NE 17 22 9 12 1014.6 1014.6 0.0
25/07:00pm 24.1 25.9 17.4 66 4.2 ENE 4 11 2 6 1014.2 1014.2 0.0
25/06:30pm 24.7 24.4 17.4 64 4.5 NE 15 20 8 11 1013.8 1013.8 0.0
25/06:00pm 25.9 26.3 17.3 59 5.4 ENE 11 19 6 10 1013.3 1013.3 0.0
25/05:30pm 27.3 26.5 17.2 54 6.3 ENE 17 24 9 13 1012.5 1012.5 0.0
25/05:00pm 29.0 27.3 17.2 49 7.4 ENE 22 32 12 17 1011.8 1011.8 0.0
25/04:30pm 29.9 27.1 17.4 47 7.9 NE 28 33 15 18 1011.5 1011.5 0.0
25/04:00pm 31.0 29.0 17.3 43 8.7 ENE 24 32 13 17 1011.5 1011.5 0.0
25/03:30pm 32.3 30.8 17.7 41 9.4 NE 22 32 12 17 1011.8 1011.8 0.0
25/03:00pm 33.1 31.5 16.5 37 10.5 ENE 20 26 11 14 1012.1 1012.1 0.0
25/02:30pm 33.7 33.8 16.5 35 10.9 N 11 24 6 13 1012.7 1012.7 0.0
25/02:00pm 32.9 31.7 15.0 34 11.1 N 15 20 8 11 1013.3 1013.3 0.0
25/01:30pm 32.1 31.6 16.0 38 10.1 NNE 13 20 7 11 1013.8 1013.8 0.0
25/01:00pm 31.3 29.9 14.4 35 10.3 N 15 24 8 13 1014.4 1014.4 0.0
25/12:30pm 30.3 28.3 14.0 37 9.8 N 17 24 9 13 1015.2 1015.2 0.0
25/12:00pm 29.5 26.4 13.3 37 9.6 N 22 30 12 16 1015.5 1015.5 0.0
25/11:30am 29.9 27.0 15.2 41 9.0 NNW 24 37 13 20 1016.2 1016.2 0.0
25/11:00am 28.7 26.6 15.2 43 8.2 N 20 26 11 14 1016.9 1016.9 0.0
25/10:30am 27.1 25.3 15.5 49 7.1 N 19 28 10 15 1017.4 1017.4 0.0
25/10:00am 25.2 23.6 14.9 52 6.2 N 17 26 9 14 1018.0 1018.0 0.0
25/09:30am 23.5 22.8 15.3 60 4.9 N 13 19 7 10 1018.5 1018.5 0.0
25/09:00am 21.1 20.8 14.5 66 3.9 N 9 15 5 8 1018.7 1018.7 0.0
25/08:30am 20.0 20.6 15.4 75 2.7 NNW 6 9 3 5 1018.8 1018.8 0.0
25/08:00am 18.5 19.2 15.6 83 1.7 N 6 9 3 5 1018.8 1018.8 0.0
25/07:30am 16.5 16.8 14.9 90 0.9 N 7 9 4 5 1018.6 1018.6 0.0
25/07:00am 15.3 15.6 15.0 98 0.2 N 7 9 4 5 1018.5 1018.5 0.0
25/06:30am 14.4 15.7 14.2 99 0.1 CALM 0 0 0 0 1018.2 1018.2 0.0
25/06:00am 13.4 14.2 12.6 95 0.4 CALM 0 4 0 2 1018.0 1018.0 0.0
25/05:30am 14.1 15.2 13.5 96 0.3 CALM 0 0 0 0 1017.6 1017.6 0.0
25/05:00am 14.5 13.8 14.3 99 0.1 N 11 13 6 7 1017.4 1017.4 0.0
25/04:30am 14.0 13.5 13.8 99 0.1 NNW 9 11 5 6 1017.2 1017.2 0.0
25/04:00am 13.5 13.3 13.0 97 0.3 NNW 6 7 3 4 1017.3 1017.3 0.0
25/03:30am 13.2 14.0 12.4 95 0.4 CALM 0 0 0 0 1017.5 1017.5 0.0
25/03:00am 14.7 16.0 14.1 96 0.3 CALM 0 0 0 0 1017.8 1017.8 0.0
25/02:30am 14.5 15.6 13.4 93 0.6 CALM 0 0 0 0 1017.9 1017.9 0.0
25/02:00am 14.8 15.8 13.2 90 0.9 CALM 0 0 0 0 1018.1 1018.1 0.0
25/01:30am 16.5 17.2 14.5 88 1.1 ENE 4 7 2 4 1018.6 1018.6 0.0
25/01:00am 16.4 16.7 14.6 89 1.0 NNW 6 9 3 5 1018.9 1018.9 0.0
25/12:30am 18.1 17.8 15.4 84 1.6 NNE 11 17 6 9 1019.2 1019.2 0.0
25/12:00am 16.3 15.7 14.5 89 1.0 N 11 13 6 7 1019.6 1019.6 0.0
 
Date/Time
EDT
Temp
°C
App
Temp
°C
Dew
Point
Rel
Hum
%
Delta-T
°C
Wind Press
QNH
hPa
Press
MSL
hPa
Rain
since 9 am
mm
Dir
 
Spd
km/h
Gust
km/h
Spd
kts
Gust
kts
24/11:30pm 16.5 16.2 14.3 87 1.3 N 9 11 5 6 1020.3 1020.3 0.0
24/11:00pm 17.3 17.1 14.6 84 1.5 N 9 11 5 6 1020.5 1020.5 0.0
24/10:30pm 19.3 18.2 15.4 78 2.3 NNE 15 19 8 10 1020.3 1020.3 0.0
24/10:00pm 19.7 18.6 15.4 76 2.5 NNE 15 20 8 11 1020.3 1020.3 0.0
24/09:30pm 19.9 18.3 14.9 73 2.9 NNE 17 26 9 14 1020.3 1020.3 0.0
24/09:00pm 20.5 18.3 14.8 70 3.3 NNE 20 28 11 15 1020.0 1020.0 0.0
24/08:30pm 20.5 17.4 14.6 69 3.4 NE 24 33 13 18 1019.6 1019.6 0.0
24/08:00pm 20.8 17.8 14.7 68 3.6 NE 24 35 13 19 1019.2 1019.2 0.0
24/07:30pm 21.0 17.7 14.9 68 3.6 NE 26 39 14 21 1018.9 1018.9 0.0
24/07:00pm 21.4 17.6 14.8 66 3.9 NE 28 37 15 20 1018.7 1018.7 0.0
24/06:30pm 21.9 17.4 14.8 64 4.2 NE 32 41 17 22 1018.4 1018.4 0.0
24/06:00pm 22.7 18.6 15.0 61 4.6 ENE 30 41 16 22 1018.2 1018.2 0.0
24/05:30pm 23.5 19.0 15.3 60 4.9 ENE 33 44 18 24 1017.8 1017.8 0.0
24/05:00pm 24.5 20.2 15.4 57 5.5 ENE 32 46 17 25 1017.6 1017.6 0.0
24/04:30pm 24.7 20.7 15.3 56 5.7 ENE 30 43 16 23 1017.8 1017.8 0.0
24/04:00pm 25.4 21.6 15.7 55 5.9 ENE 30 39 16 21 1018.0 1018.0 0.0
24/03:30pm 26.3 23.0 16.0 53 6.3 ENE 28 37 15 20 1018.2 1018.2 0.0
24/03:00pm 26.6 23.6 15.9 51 6.5 ENE 26 35 14 19 1018.6 1018.6 0.0
24/02:30pm 26.9 24.2 15.6 50 6.9 ENE 24 32 13 17 1018.8 1018.8 0.0
24/02:00pm 27.0 24.3 15.7 50 6.9 ENE 24 33 13 18 1019.2 1019.2 0.0
24/01:30pm 27.9 26.5 15.5 46 7.6 NNE 17 28 9 15 1019.4 1019.4 0.0
24/01:00pm 27.9 27.0 13.8 42 8.4 NNE 11 19 6 10 1020.0 1020.0 0.0
24/12:30pm 27.1 26.3 14.1 44 7.8 NE 11 17 6 9 1020.3 1020.3 0.0
24/12:00pm 26.4 26.0 14.2 47 7.2 NNE 9 17 5 9 1020.8 1020.8 0.0
24/11:30am 26.7 27.4 16.0 52 6.6 N 7 15 4 8 1021.2 1021.2 0.0
24/11:00am 24.7 24.3 14.2 52 6.2 NNW 9 13 5 7 1021.5 1021.5 0.0
24/10:30am 24.1 23.7 14.2 54 5.8 NE 9 15 5 8 1022.0 1022.0 0.0
24/10:00am 23.4 23.6 14.1 56 5.4 WNW 6 13 3 7 1022.2 1022.2 0.0
24/09:30am 22.5 23.0 15.1 63 4.4 N 6 13 3 7 1022.4 1022.4 0.0
24/09:00am 20.3 21.4 14.7 70 3.3 WNW 2 9 1 5 1022.4 1022.4 0.0
24/08:30am 17.9 18.0 14.4 80 2.0 N 7 9 4 5 1022.2 1022.2 0.0
24/08:00am 15.8 16.3 15.6 99 0.1 N 7 9 4 5 1022.2 1022.2 0.0
24/07:30am 14.4 14.4 14.2 99 0.1 NNW 7 9 4 5 1022.0 1022.0 0.0
24/07:29am 14.4 14.4 14.2 99 0.1 N 7 9 4 5 1022.0 1022.0 0.0
24/07:00am 13.4 14.0 13.2 99 0.1 N 2 7 1 4 1021.8 1021.8 0.0
24/06:55am 13.3 14.3 13.1 99 0.1 CALM 0 0 0 0 1021.7 1021.7 0.0
24/06:30am 12.8 12.3 12.6 99 0.1 N 7 9 4 5 1021.5 1021.5 0.0
24/06:28am 12.8 12.3 12.6 99 0.1 N 7 9 4 5 1021.4 1021.4 0.0
24/06:14am 12.7 13.5 12.5 99 0.1 CALM 0 0 0 0 1021.1 1021.1 0.0
24/06:00am 12.0 12.6 11.8 99 0.1 CALM 0 0 0 0 1021.2 1021.2 0.0
24/05:30am 12.5 11.5 12.3 99 0.1 N 9 11 5 6 1020.6 1020.6 0.0
24/05:00am 12.6 10.9 12.4 99 0.1 N 13 15 7 8 1020.2 1020.2 0.0
24/04:30am 12.9 12.0 12.7 99 0.1 N 9 11 5 6 1020.2 1020.2 0.0
24/04:00am 13.3 12.6 13.1 99 0.1 N 9 11 5 6 1020.0 1020.0 0.0
24/03:56am 13.3 12.6 13.1 99 0.1 N 9 11 5 6 1020.0 1020.0 0.0
24/03:50am 13.2 12.8 13.0 99 0.1 N 7 9 4 5 1020.0 1020.0 0.0
24/03:38am 13.1 12.7 12.9 99 0.1 N 7 9 4 5 1020.0 1020.0 0.0
24/03:30am 13.3 12.9 13.1 99 0.1 N 7 11 4 6 1020.1 1020.1 0.0
24/03:27am 13.5 12.8 13.3 99 0.1 N 9 11 5 6 1020.1 1020.1 0.0
24/03:12am 13.7 13.7 13.5 99 0.1 N 6 11 3 6 1020.1 1020.1 0.0
24/03:06am 13.5 14.2 13.3 99 0.1 N 2 9 1 5 1020.1 1020.1 0.0
24/03:00am 13.7 14.0 13.5 99 0.1 NNW 4 7 2 4 1020.1 1020.1 0.0
24/02:56am 13.8 13.8 13.6 99 0.1 NNW 6 7 3 4 1020.1 1020.1 0.0
24/02:36am 13.1 12.3 12.8 98 0.2 N 9 11 5 6 1020.0 1020.0 0.0
24/02:30am 13.2 12.0 12.9 98 0.2 N 11 13 6 7 1020.0 1020.0 0.0
24/02:00am 14.3 13.9 14.0 98 0.2 N 9 13 5 7 1020.2 1020.2 0.0
24/01:30am 14.0 15.0 13.2 95 0.4 CALM 0 0 0 0 1020.6 1020.6 0.0
24/01:00am 14.4 13.5 13.6 95 0.4 N 11 13 6 7 1020.6 1020.6 0.0
24/12:30am 14.4 13.8 13.4 94 0.6 NNW 9 11 5 6 1020.9 1020.9 0.0
24/12:00am 15.1 13.7 13.5 90 0.9 N 13 17 7 9 1020.8 1020.8 0.0
 
Date/Time
EDT
Temp
°C
App
Temp
°C
Dew
Point
Rel
Hum
%
Delta-T
°C
Wind Press
QNH
hPa
Press
MSL
hPa
Rain
since 9 am
mm
Dir
 
Spd
km/h
Gust
km/h
Spd
kts
Gust
kts
23/11:30pm 15.4 14.3 13.1 86 1.3 NNW 11 13 6 7 1020.7 1020.7 0.0
23/11:00pm 15.8 15.1 13.3 85 1.4 N 9 11 5 6 1020.6 1020.6 0.0
23/10:30pm 16.2 15.2 13.3 83 1.6 N 11 13 6 7 1020.6 1020.6 0.0
23/10:00pm 17.1 16.8 13.4 79 2.1 N 7 11 4 6 1020.5 1020.5 0.0
23/09:30pm 19.3 18.5 13.9 71 3.1 NNE 11 13 6 7 1020.2 1020.2 0.0
23/09:00pm 19.2 20.0 13.6 70 3.2 NNE 2 11 1 6 1019.8 1019.8 0.0
23/08:30pm 20.4 19.1 13.8 66 3.8 NE 13 15 7 8 1019.3 1019.3 0.0
23/08:00pm 20.6 18.6 13.8 65 3.9 NE 17 20 9 11 1019.1 1019.1 0.0
23/07:30pm 20.8 19.4 13.5 63 4.2 NNW 13 22 7 12 1019.2 1019.2 0.0
23/07:00pm 21.1 19.5 13.8 63 4.2 NE 15 20 8 11 1018.6 1018.6 0.0
23/06:30pm 21.4 18.9 13.6 61 4.5 NE 19 28 10 15 1018.3 1018.3 0.0
23/06:00pm 21.9 19.3 13.8 60 4.7 NE 20 28 11 15 1017.7 1017.7 0.0
23/05:30pm 22.9 20.6 14.2 58 5.1 NE 19 24 10 13 1017.2 1017.2 0.0
23/05:00pm 23.6 20.0 14.3 56 5.5 NE 26 35 14 19 1016.8 1016.8 0.0
23/04:30pm 24.3 21.2 14.4 54 5.9 ENE 24 32 13 17 1016.2 1016.2 0.0
23/04:00pm 25.4 21.8 14.2 50 6.6 ENE 26 35 14 19 1016.1 1016.1 0.0
23/03:30pm 27.2 25.0 14.9 47 7.4 ENE 20 32 11 17 1016.1 1016.1 0.0
23/03:00pm 28.0 25.7 14.6 44 8.1 NE 20 28 11 15 1016.2 1016.2 0.0
23/02:30pm 28.7 27.4 13.8 40 8.9 E 13 24 7 13 1016.6 1016.6 0.0
23/02:00pm 27.9 27.5 13.1 40 8.7 N 7 13 4 7 1017.2 1017.2 0.0
23/01:30pm 28.0 27.4 12.4 38 9.1 NW 7 13 4 7 1017.8 1017.8 0.0
23/01:00pm 26.8 25.7 13.2 43 8.0 NE 11 17 6 9 1018.5 1018.5 0.0
23/12:30pm 25.7 24.5 12.9 45 7.4 WNW 11 19 6 10 1019.2 1019.2 0.0
23/12:00pm 25.2 23.9 12.4 45 7.3 NW 11 19 6 10 1019.8 1019.8 0.0
23/11:30am 23.9 23.1 12.8 49 6.4 N 9 17 5 9 1020.5 1020.5 0.0

Other Formats:

Comma delimited format used in spreadsheet applications
http://www.bom.gov.au/fwo/IDN60801/IDN60801.94572.axf

JavaScript Object Notation format (JSON) in row-major order
http://www.bom.gov.au/fwo/IDN60801/IDN60801.94572.json